sensor_id;sensor_type;location;lat;lon;timestamp;temperature;humidity
12874;DHT22;6505;51.114;13.128;2022-09-24T00:02:10;17.60;53.90
12874;DHT22;6505;51.114;13.128;2022-09-24T00:04:38;17.60;53.90
12874;DHT22;6505;51.114;13.128;2022-09-24T00:07:06;17.60;53.90
12874;DHT22;6505;51.114;13.128;2022-09-24T00:09:35;17.60;53.90
12874;DHT22;6505;51.114;13.128;2022-09-24T00:12:03;17.60;53.90
12874;DHT22;6505;51.114;13.128;2022-09-24T00:14:31;17.60;53.80
12874;DHT22;6505;51.114;13.128;2022-09-24T00:16:59;17.50;53.50
12874;DHT22;6505;51.114;13.128;2022-09-24T00:19:27;17.60;53.60
12874;DHT22;6505;51.114;13.128;2022-09-24T00:21:55;17.60;53.60
12874;DHT22;6505;51.114;13.128;2022-09-24T00:24:23;17.60;53.70
12874;DHT22;6505;51.114;13.128;2022-09-24T00:27:10;17.60;53.70
12874;DHT22;6505;51.114;13.128;2022-09-24T00:29:38;17.50;53.50
12874;DHT22;6505;51.114;13.128;2022-09-24T00:32:06;17.60;53.60
12874;DHT22;6505;51.114;13.128;2022-09-24T00:34:35;17.50;53.50
12874;DHT22;6505;51.114;13.128;2022-09-24T00:37:03;17.50;53.60
12874;DHT22;6505;51.114;13.128;2022-09-24T00:39:31;17.50;53.70
12874;DHT22;6505;51.114;13.128;2022-09-24T00:41:59;17.50;53.70
12874;DHT22;6505;51.114;13.128;2022-09-24T00:44:51;17.50;53.70
12874;DHT22;6505;51.114;13.128;2022-09-24T00:47:44;17.40;53.70
12874;DHT22;6505;51.114;13.128;2022-09-24T00:50:16;17.50;53.70
12874;DHT22;6505;51.114;13.128;2022-09-24T00:52:49;17.40;53.70
12874;DHT22;6505;51.114;13.128;2022-09-24T00:55:20;17.40;53.60
12874;DHT22;6505;51.114;13.128;2022-09-24T00:57:51;17.40;53.60
12874;DHT22;6505;51.114;13.128;2022-09-24T01:00:23;17.40;53.60
12874;DHT22;6505;51.114;13.128;2022-09-24T01:02:55;17.40;53.60
12874;DHT22;6505;51.114;13.128;2022-09-24T01:05:27;17.40;53.80
12874;DHT22;6505;51.114;13.128;2022-09-24T01:07:55;17.40;53.80
12874;DHT22;6505;51.114;13.128;2022-09-24T01:10:30;17.40;53.70
12874;DHT22;6505;51.114;13.128;2022-09-24T01:13:29;17.30;53.80
12874;DHT22;6505;51.114;13.128;2022-09-24T01:16:21;17.30;53.70
12874;DHT22;6505;51.114;13.128;2022-09-24T01:19:06;17.30;53.70
12874;DHT22;6505;51.114;13.128;2022-09-24T01:21:47;17.30;53.70
12874;DHT22;6505;51.114;13.128;2022-09-24T01:24:34;17.30;53.70
12874;DHT22;6505;51.114;13.128;2022-09-24T01:27:20;17.30;53.80
12874;DHT22;6505;51.114;13.128;2022-09-24T01:30:03;17.20;53.70
12874;DHT22;6505;51.114;13.128;2022-09-24T01:32:34;17.20;53.70
12874;DHT22;6505;51.114;13.128;2022-09-24T01:35:10;17.20;53.70
12874;DHT22;6505;51.114;13.128;2022-09-24T01:37:46;17.20;53.70
12874;DHT22;6505;51.114;13.128;2022-09-24T01:40:18;17.20;53.60
12874;DHT22;6505;51.114;13.128;2022-09-24T01:42:49;17.10;53.60
12874;DHT22;6505;51.114;13.128;2022-09-24T01:45:20;17.10;53.60
12874;DHT22;6505;51.114;13.128;2022-09-24T01:47:49;17.10;53.60
12874;DHT22;6505;51.114;13.128;2022-09-24T01:50:18;17.10;53.70
12874;DHT22;6505;51.114;13.128;2022-09-24T01:52:49;17.10;53.70
12874;DHT22;6505;51.114;13.128;2022-09-24T01:55:25;17.10;53.80
12874;DHT22;6505;51.114;13.128;2022-09-24T01:58:02;17.10;53.70
12874;DHT22;6505;51.114;13.128;2022-09-24T02:00:37;17.10;53.80
12874;DHT22;6505;51.114;13.128;2022-09-24T02:03:11;17.00;53.70
12874;DHT22;6505;51.114;13.128;2022-09-24T02:05:47;17.00;53.70
12874;DHT22;6505;51.114;13.128;2022-09-24T02:08:22;17.00;53.70
12874;DHT22;6505;51.114;13.128;2022-09-24T02:10:56;17.00;53.70
12874;DHT22;6505;51.114;13.128;2022-09-24T02:13:33;17.00;53.70
12874;DHT22;6505;51.114;13.128;2022-09-24T02:16:09;17.00;53.70
12874;DHT22;6505;51.114;13.128;2022-09-24T02:18:41;17.00;53.80
12874;DHT22;6505;51.114;13.128;2022-09-24T02:21:14;17.00;53.80
12874;DHT22;6505;51.114;13.128;2022-09-24T02:23:50;16.90;53.70
12874;DHT22;6505;51.114;13.128;2022-09-24T02:26:21;16.90;53.80
12874;DHT22;6505;51.114;13.128;2022-09-24T02:28:49;16.90;53.80
12874;DHT22;6505;51.114;13.128;2022-09-24T02:31:23;16.90;53.80
12874;DHT22;6505;51.114;13.128;2022-09-24T02:34:06;16.90;54.00
12874;DHT22;6505;51.114;13.128;2022-09-24T02:36:53;16.90;54.10
12874;DHT22;6505;51.114;13.128;2022-09-24T02:39:25;16.90;54.10
12874;DHT22;6505;51.114;13.128;2022-09-24T02:41:53;16.90;54.10
12874;DHT22;6505;51.114;13.128;2022-09-24T02:44:22;16.90;54.20
12874;DHT22;6505;51.114;13.128;2022-09-24T02:46:52;16.90;54.20
12874;DHT22;6505;51.114;13.128;2022-09-24T02:49:19;16.90;54.30
12874;DHT22;6505;51.114;13.128;2022-09-24T02:51:47;16.90;54.30
12874;DHT22;6505;51.114;13.128;2022-09-24T02:54:15;16.80;54.10
12874;DHT22;6505;51.114;13.128;2022-09-24T02:56:43;16.80;54.10
12874;DHT22;6505;51.114;13.128;2022-09-24T02:59:11;16.90;54.20
12874;DHT22;6505;51.114;13.128;2022-09-24T03:01:39;16.90;54.30
12874;DHT22;6505;51.114;13.128;2022-09-24T03:04:09;16.90;54.30
12874;DHT22;6505;51.114;13.128;2022-09-24T03:06:38;16.90;54.20
12874;DHT22;6505;51.114;13.128;2022-09-24T03:09:06;16.80;54.10
12874;DHT22;6505;51.114;13.128;2022-09-24T03:11:33;16.80;54.00
12874;DHT22;6505;51.114;13.128;2022-09-24T03:14:01;16.90;54.10
12874;DHT22;6505;51.114;13.128;2022-09-24T03:16:29;16.80;54.10
12874;DHT22;6505;51.114;13.128;2022-09-24T03:18:59;16.80;54.10
12874;DHT22;6505;51.114;13.128;2022-09-24T03:21:28;16.80;53.90
12874;DHT22;6505;51.114;13.128;2022-09-24T03:23:56;16.80;54.00
12874;DHT22;6505;51.114;13.128;2022-09-24T03:26:25;16.80;54.00
12874;DHT22;6505;51.114;13.128;2022-09-24T03:28:53;16.80;54.00
12874;DHT22;6505;51.114;13.128;2022-09-24T03:31:21;16.80;54.00
12874;DHT22;6505;51.114;13.128;2022-09-24T03:33:50;16.80;54.10
12874;DHT22;6505;51.114;13.128;2022-09-24T03:36:19;16.80;54.10
12874;DHT22;6505;51.114;13.128;2022-09-24T03:38:51;16.80;54.10
12874;DHT22;6505;51.114;13.128;2022-09-24T03:41:22;16.80;54.20
12874;DHT22;6505;51.114;13.128;2022-09-24T03:43:52;16.70;54.10
12874;DHT22;6505;51.114;13.128;2022-09-24T03:46:20;16.70;54.10
12874;DHT22;6505;51.114;13.128;2022-09-24T03:48:50;16.70;54.80
12874;DHT22;6505;51.114;13.128;2022-09-24T03:51:18;16.70;54.10
12874;DHT22;6505;51.114;13.128;2022-09-24T03:53:47;16.70;54.10
12874;DHT22;6505;51.114;13.128;2022-09-24T03:56:16;16.70;54.30
12874;DHT22;6505;51.114;13.128;2022-09-24T03:58:44;16.70;54.20
12874;DHT22;6505;51.114;13.128;2022-09-24T04:01:13;16.70;54.20
12874;DHT22;6505;51.114;13.128;2022-09-24T04:03:48;16.70;54.30
12874;DHT22;6505;51.114;13.128;2022-09-24T04:06:16;16.70;54.20
12874;DHT22;6505;51.114;13.128;2022-09-24T04:08:51;16.70;54.30
12874;DHT22;6505;51.114;13.128;2022-09-24T04:11:21;16.60;54.10
12874;DHT22;6505;51.114;13.128;2022-09-24T04:13:49;16.60;54.10
12874;DHT22;6505;51.114;13.128;2022-09-24T04:16:18;16.60;54.20
12874;DHT22;6505;51.114;13.128;2022-09-24T04:18:46;16.60;54.10
12874;DHT22;6505;51.114;13.128;2022-09-24T04:21:14;16.60;54.10
12874;DHT22;6505;51.114;13.128;2022-09-24T04:23:42;16.60;54.20
12874;DHT22;6505;51.114;13.128;2022-09-24T04:26:10;16.50;54.10
12874;DHT22;6505;51.114;13.128;2022-09-24T04:28:39;16.60;54.20
12874;DHT22;6505;51.114;13.128;2022-09-24T04:31:07;16.60;54.10
12874;DHT22;6505;51.114;13.128;2022-09-24T04:33:35;16.60;54.20
12874;DHT22;6505;51.114;13.128;2022-09-24T04:36:03;16.50;54.10
12874;DHT22;6505;51.114;13.128;2022-09-24T04:38:31;16.50;54.80
12874;DHT22;6505;51.114;13.128;2022-09-24T04:41:04;16.50;54.10
12874;DHT22;6505;51.114;13.128;2022-09-24T04:43:32;16.50;54.20
12874;DHT22;6505;51.114;13.128;2022-09-24T04:46:04;16.50;54.20
12874;DHT22;6505;51.114;13.128;2022-09-24T04:48:34;16.50;54.30
12874;DHT22;6505;51.114;13.128;2022-09-24T04:51:04;16.50;54.30
12874;DHT22;6505;51.114;13.128;2022-09-24T04:53:32;16.50;54.40
12874;DHT22;6505;51.114;13.128;2022-09-24T04:56:02;16.50;54.40
12874;DHT22;6505;51.114;13.128;2022-09-24T04:58:31;16.50;54.50
12874;DHT22;6505;51.114;13.128;2022-09-24T05:01:00;16.50;54.40
12874;DHT22;6505;51.114;13.128;2022-09-24T05:03:30;16.50;54.40
12874;DHT22;6505;51.114;13.128;2022-09-24T05:05:58;16.50;54.40
12874;DHT22;6505;51.114;13.128;2022-09-24T05:08:27;16.50;54.40
12874;DHT22;6505;51.114;13.128;2022-09-24T05:10:55;16.50;54.50
12874;DHT22;6505;51.114;13.128;2022-09-24T05:13:23;16.40;54.40
12874;DHT22;6505;51.114;13.128;2022-09-24T05:15:51;16.40;54.40
12874;DHT22;6505;51.114;13.128;2022-09-24T05:18:18;16.40;54.50
12874;DHT22;6505;51.114;13.128;2022-09-24T05:20:48;16.40;54.50
12874;DHT22;6505;51.114;13.128;2022-09-24T05:23:16;16.40;54.60
12874;DHT22;6505;51.114;13.128;2022-09-24T05:25:44;16.40;54.60
12874;DHT22;6505;51.114;13.128;2022-09-24T05:28:29;16.40;54.70
12874;DHT22;6505;51.114;13.128;2022-09-24T05:30:58;16.50;54.70
12874;DHT22;6505;51.114;13.128;2022-09-24T05:33:28;16.50;55.40
12874;DHT22;6505;51.114;13.128;2022-09-24T05:35:57;16.40;54.70
12874;DHT22;6505;51.114;13.128;2022-09-24T05:38:25;16.50;54.70
12874;DHT22;6505;51.114;13.128;2022-09-24T05:40:53;16.40;54.70
12874;DHT22;6505;51.114;13.128;2022-09-24T05:43:21;16.50;54.90
12874;DHT22;6505;51.114;13.128;2022-09-24T05:45:49;16.50;54.90
12874;DHT22;6505;51.114;13.128;2022-09-24T05:48:18;16.50;55.00
12874;DHT22;6505;51.114;13.128;2022-09-24T05:50:46;16.50;55.00
12874;DHT22;6505;51.114;13.128;2022-09-24T05:53:15;16.50;55.00
12874;DHT22;6505;51.114;13.128;2022-09-24T05:55:43;16.50;55.10
12874;DHT22;6505;51.114;13.128;2022-09-24T05:58:12;16.50;55.10
12874;DHT22;6505;51.114;13.128;2022-09-24T06:00:40;16.50;55.20
12874;DHT22;6505;51.114;13.128;2022-09-24T06:03:11;16.60;55.40
12874;DHT22;6505;51.114;13.128;2022-09-24T06:05:43;16.60;55.60
12874;DHT22;6505;51.114;13.128;2022-09-24T06:08:12;16.60;55.70
12874;DHT22;6505;51.114;13.128;2022-09-24T06:10:43;16.60;55.80
12874;DHT22;6505;51.114;13.128;2022-09-24T06:13:15;16.60;55.90
12874;DHT22;6505;51.114;13.128;2022-09-24T06:15:45;16.70;55.90
12874;DHT22;6505;51.114;13.128;2022-09-24T06:18:13;16.70;55.80
12874;DHT22;6505;51.114;13.128;2022-09-24T06:20:41;16.70;55.80
12874;DHT22;6505;51.114;13.128;2022-09-24T06:23:10;16.70;55.80
12874;DHT22;6505;51.114;13.128;2022-09-24T06:25:37;16.80;56.50
12874;DHT22;6505;51.114;13.128;2022-09-24T06:28:07;16.80;55.70
12874;DHT22;6505;51.114;13.128;2022-09-24T06:30:36;16.80;55.70
12874;DHT22;6505;51.114;13.128;2022-09-24T06:33:07;16.80;55.80
12874;DHT22;6505;51.114;13.128;2022-09-24T06:35:37;16.80;55.70
12874;DHT22;6505;51.114;13.128;2022-09-24T06:38:09;16.90;55.80
12874;DHT22;6505;51.114;13.128;2022-09-24T06:40:39;16.90;56.00
12874;DHT22;6505;51.114;13.128;2022-09-24T06:43:10;17.00;56.20
12874;DHT22;6505;51.114;13.128;2022-09-24T06:45:39;17.00;56.20
12874;DHT22;6505;51.114;13.128;2022-09-24T06:48:09;16.90;56.20
12874;DHT22;6505;51.114;13.128;2022-09-24T06:50:42;17.00;56.30
12874;DHT22;6505;51.114;13.128;2022-09-24T06:53:11;17.00;56.30
12874;DHT22;6505;51.114;13.128;2022-09-24T06:55:45;17.10;56.30
12874;DHT22;6505;51.114;13.128;2022-09-24T06:58:16;17.20;56.30
12874;DHT22;6505;51.114;13.128;2022-09-24T07:00:50;17.20;56.10
12874;DHT22;6505;51.114;13.128;2022-09-24T07:03:20;17.20;55.90
12874;DHT22;6505;51.114;13.128;2022-09-24T07:05:48;17.20;55.80
12874;DHT22;6505;51.114;13.128;2022-09-24T07:08:16;17.30;56.00
12874;DHT22;6505;51.114;13.128;2022-09-24T07:10:45;17.40;56.00
12874;DHT22;6505;51.114;13.128;2022-09-24T07:13:16;17.40;56.10
12874;DHT22;6505;51.114;13.128;2022-09-24T07:15:44;17.50;56.10
12874;DHT22;6505;51.114;13.128;2022-09-24T07:18:12;17.50;56.00
12874;DHT22;6505;51.114;13.128;2022-09-24T07:20:40;17.60;56.00
12874;DHT22;6505;51.114;13.128;2022-09-24T07:23:10;17.60;56.30
12874;DHT22;6505;51.114;13.128;2022-09-24T07:25:38;17.60;56.40
12874;DHT22;6505;51.114;13.128;2022-09-24T07:28:09;17.60;56.40
12874;DHT22;6505;51.114;13.128;2022-09-24T07:30:40;17.60;56.80
12874;DHT22;6505;51.114;13.128;2022-09-24T07:33:09;17.70;57.00
12874;DHT22;6505;51.114;13.128;2022-09-24T07:35:38;17.70;57.00
12874;DHT22;6505;51.114;13.128;2022-09-24T07:38:09;17.80;57.30
12874;DHT22;6505;51.114;13.128;2022-09-24T07:40:38;17.90;57.40
12874;DHT22;6505;51.114;13.128;2022-09-24T07:43:08;18.00;57.50
12874;DHT22;6505;51.114;13.128;2022-09-24T07:45:41;18.10;57.40
12874;DHT22;6505;51.114;13.128;2022-09-24T07:48:10;18.20;57.00
12874;DHT22;6505;51.114;13.128;2022-09-24T07:50:39;18.30;57.40
12874;DHT22;6505;51.114;13.128;2022-09-24T07:53:09;18.30;57.50
12874;DHT22;6505;51.114;13.128;2022-09-24T07:55:38;18.40;57.10
12874;DHT22;6505;51.114;13.128;2022-09-24T07:58:09;18.50;57.30
12874;DHT22;6505;51.114;13.128;2022-09-24T08:00:40;18.60;57.40
12874;DHT22;6505;51.114;13.128;2022-09-24T08:03:08;18.70;57.20
12874;DHT22;6505;51.114;13.128;2022-09-24T08:05:41;18.80;57.20
12874;DHT22;6505;51.114;13.128;2022-09-24T08:08:11;18.90;57.20
12874;DHT22;6505;51.114;13.128;2022-09-24T08:10:40;18.90;57.10
12874;DHT22;6505;51.114;13.128;2022-09-24T08:13:08;19.00;57.20
12874;DHT22;6505;51.114;13.128;2022-09-24T08:15:37;19.20;57.00
12874;DHT22;6505;51.114;13.128;2022-09-24T08:18:06;19.30;56.80
12874;DHT22;6505;51.114;13.128;2022-09-24T08:20:36;19.50;56.30
12874;DHT22;6505;51.114;13.128;2022-09-24T08:23:06;19.70;55.90
12874;DHT22;6505;51.114;13.128;2022-09-24T08:25:36;19.80;55.60
12874;DHT22;6505;51.114;13.128;2022-09-24T08:28:06;20.00;55.20
12874;DHT22;6505;51.114;13.128;2022-09-24T08:30:37;20.00;54.80
12874;DHT22;6505;51.114;13.128;2022-09-24T08:33:07;20.20;54.60
12874;DHT22;6505;51.114;13.128;2022-09-24T08:35:36;20.20;54.60
12874;DHT22;6505;51.114;13.128;2022-09-24T08:38:06;20.20;54.60
12874;DHT22;6505;51.114;13.128;2022-09-24T08:40:38;20.30;54.10
12874;DHT22;6505;51.114;13.128;2022-09-24T08:43:18;20.30;54.40
12874;DHT22;6505;51.114;13.128;2022-09-24T08:46:02;20.30;54.20
12874;DHT22;6505;51.114;13.128;2022-09-24T08:49:06;20.40;54.00
12874;DHT22;6505;51.114;13.128;2022-09-24T08:51:42;20.40;53.60
12874;DHT22;6505;51.114;13.128;2022-09-24T08:54:17;20.50;53.70
12874;DHT22;6505;51.114;13.128;2022-09-24T08:56:49;20.50;53.20
12874;DHT22;6505;51.114;13.128;2022-09-24T08:59:26;20.50;53.10
12874;DHT22;6505;51.114;13.128;2022-09-24T09:02:09;20.50;53.10
12874;DHT22;6505;51.114;13.128;2022-09-24T09:04:55;20.60;53.10
12874;DHT22;6505;51.114;13.128;2022-09-24T09:07:33;20.60;53.10
12874;DHT22;6505;51.114;13.128;2022-09-24T09:10:12;20.70;52.90
12874;DHT22;6505;51.114;13.128;2022-09-24T09:12:45;20.70;52.60
12874;DHT22;6505;51.114;13.128;2022-09-24T09:15:20;20.70;52.60
12874;DHT22;6505;51.114;13.128;2022-09-24T09:17:53;20.70;52.90
12874;DHT22;6505;51.114;13.128;2022-09-24T09:20:29;20.80;53.10
12874;DHT22;6505;51.114;13.128;2022-09-24T09:23:09;20.80;52.70
12874;DHT22;6505;51.114;13.128;2022-09-24T09:25:45;20.80;52.60
12874;DHT22;6505;51.114;13.128;2022-09-24T09:28:17;20.90;52.70
12874;DHT22;6505;51.114;13.128;2022-09-24T09:30:54;20.90;52.80
12874;DHT22;6505;51.114;13.128;2022-09-24T09:33:47;20.90;52.20
12874;DHT22;6505;51.114;13.128;2022-09-24T09:36:35;21.00;52.40
12874;DHT22;6505;51.114;13.128;2022-09-24T09:39:21;21.00;52.60
12874;DHT22;6505;51.114;13.128;2022-09-24T09:42:19;21.10;51.80
12874;DHT22;6505;51.114;13.128;2022-09-24T09:44:55;21.10;51.70
12874;DHT22;6505;51.114;13.128;2022-09-24T09:47:31;21.10;51.60
12874;DHT22;6505;51.114;13.128;2022-09-24T09:50:13;21.20;51.60
12874;DHT22;6505;51.114;13.128;2022-09-24T09:52:47;21.20;51.40
12874;DHT22;6505;51.114;13.128;2022-09-24T09:55:26;21.20;51.50
12874;DHT22;6505;51.114;13.128;2022-09-24T09:58:07;21.20;51.10
12874;DHT22;6505;51.114;13.128;2022-09-24T10:00:37;21.20;51.00
12874;DHT22;6505;51.114;13.128;2022-09-24T10:03:05;21.30;51.10
12874;DHT22;6505;51.114;13.128;2022-09-24T10:05:52;21.30;50.80
12874;DHT22;6505;51.114;13.128;2022-09-24T10:08:24;21.30;51.50
12874;DHT22;6505;51.114;13.128;2022-09-24T10:10:54;21.40;50.90
12874;DHT22;6505;51.114;13.128;2022-09-24T10:13:23;21.40;50.70
12874;DHT22;6505;51.114;13.128;2022-09-24T10:15:53;21.30;50.70
12874;DHT22;6505;51.114;13.128;2022-09-24T10:18:28;21.30;51.00
12874;DHT22;6505;51.114;13.128;2022-09-24T10:21:01;21.30;51.10
12874;DHT22;6505;51.114;13.128;2022-09-24T10:23:36;21.30;50.80
12874;DHT22;6505;51.114;13.128;2022-09-24T10:26:07;21.30;51.00
12874;DHT22;6505;51.114;13.128;2022-09-24T10:28:40;21.20;50.90
12874;DHT22;6505;51.114;13.128;2022-09-24T10:31:37;21.20;50.60
12874;DHT22;6505;51.114;13.128;2022-09-24T10:34:20;21.20;51.00
12874;DHT22;6505;51.114;13.128;2022-09-24T10:36:57;21.10;50.90
12874;DHT22;6505;51.114;13.128;2022-09-24T10:39:28;21.10;50.60
12874;DHT22;6505;51.114;13.128;2022-09-24T10:41:57;21.10;50.10
12874;DHT22;6505;51.114;13.128;2022-09-24T10:44:29;21.10;50.10
12874;DHT22;6505;51.114;13.128;2022-09-24T10:47:13;21.10;50.00
12874;DHT22;6505;51.114;13.128;2022-09-24T10:50:02;21.00;50.00
12874;DHT22;6505;51.114;13.128;2022-09-24T10:52:45;21.00;49.50
12874;DHT22;6505;51.114;13.128;2022-09-24T10:55:24;21.00;49.70
12874;DHT22;6505;51.114;13.128;2022-09-24T10:58:08;21.00;49.50
12874;DHT22;6505;51.114;13.128;2022-09-24T11:00:58;20.90;50.20
12874;DHT22;6505;51.114;13.128;2022-09-24T11:04:05;20.90;50.00
12874;DHT22;6505;51.114;13.128;2022-09-24T11:07:09;20.90;49.50
12874;DHT22;6505;51.114;13.128;2022-09-24T11:09:58;20.80;49.20
12874;DHT22;6505;51.114;13.128;2022-09-24T11:12:37;20.80;48.90
12874;DHT22;6505;51.114;13.128;2022-09-24T11:15:24;20.80;48.90
12874;DHT22;6505;51.114;13.128;2022-09-24T11:18:18;20.80;49.40
12874;DHT22;6505;51.114;13.128;2022-09-24T11:21:05;20.80;48.90
12874;DHT22;6505;51.114;13.128;2022-09-24T11:24:00;20.80;48.80
12874;DHT22;6505;51.114;13.128;2022-09-24T11:26:47;20.80;48.80
12874;DHT22;6505;51.114;13.128;2022-09-24T11:29:40;20.80;49.30
12874;DHT22;6505;51.114;13.128;2022-09-24T11:32:23;20.80;49.60
12874;DHT22;6505;51.114;13.128;2022-09-24T11:35:06;20.90;49.50
12874;DHT22;6505;51.114;13.128;2022-09-24T11:37:59;20.90;49.40
12874;DHT22;6505;51.114;13.128;2022-09-24T11:40:48;20.90;49.60
12874;DHT22;6505;51.114;13.128;2022-09-24T11:43:47;20.90;50.40
12874;DHT22;6505;51.114;13.128;2022-09-24T11:46:37;21.00;50.00
12874;DHT22;6505;51.114;13.128;2022-09-24T11:49:35;21.00;49.90
12874;DHT22;6505;51.114;13.128;2022-09-24T11:52:14;21.00;49.90
12874;DHT22;6505;51.114;13.128;2022-09-24T11:55:01;21.00;49.90
12874;DHT22;6505;51.114;13.128;2022-09-24T11:57:40;21.00;50.00
12874;DHT22;6505;51.114;13.128;2022-09-24T12:00:13;21.00;50.20
12874;DHT22;6505;51.114;13.128;2022-09-24T12:02:47;21.10;50.10
12874;DHT22;6505;51.114;13.128;2022-09-24T12:05:25;21.00;50.40
12874;DHT22;6505;51.114;13.128;2022-09-24T12:08:01;21.10;50.60
12874;DHT22;6505;51.114;13.128;2022-09-24T12:10:40;21.10;50.60
12874;DHT22;6505;51.114;13.128;2022-09-24T12:13:15;21.10;50.50
12874;DHT22;6505;51.114;13.128;2022-09-24T12:15:49;21.10;50.50
12874;DHT22;6505;51.114;13.128;2022-09-24T12:18:25;21.20;49.30
12874;DHT22;6505;51.114;13.128;2022-09-24T12:20:58;21.20;49.90
12874;DHT22;6505;51.114;13.128;2022-09-24T12:23:31;21.20;50.10
12874;DHT22;6505;51.114;13.128;2022-09-24T12:26:03;21.20;49.60
12874;DHT22;6505;51.114;13.128;2022-09-24T12:28:36;21.20;49.10
12874;DHT22;6505;51.114;13.128;2022-09-24T12:31:33;21.20;48.90
12874;DHT22;6505;51.114;13.128;2022-09-24T12:34:36;21.20;49.10
12874;DHT22;6505;51.114;13.128;2022-09-24T12:37:15;21.20;49.10
12874;DHT22;6505;51.114;13.128;2022-09-24T12:39:52;21.20;49.60
12874;DHT22;6505;51.114;13.128;2022-09-24T12:42:33;21.20;50.10
12874;DHT22;6505;51.114;13.128;2022-09-24T12:45:12;21.20;49.70
12874;DHT22;6505;51.114;13.128;2022-09-24T12:47:47;21.20;49.90
12874;DHT22;6505;51.114;13.128;2022-09-24T12:50:22;21.20;49.90
12874;DHT22;6505;51.114;13.128;2022-09-24T12:52:53;21.20;49.90
12874;DHT22;6505;51.114;13.128;2022-09-24T12:55:22;21.20;50.60
12874;DHT22;6505;51.114;13.128;2022-09-24T12:57:54;21.20;50.60
12874;DHT22;6505;51.114;13.128;2022-09-24T13:00:37;21.20;50.50
12874;DHT22;6505;51.114;13.128;2022-09-24T13:03:30;21.20;49.90
12874;DHT22;6505;51.114;13.128;2022-09-24T13:06:02;21.20;49.70
12874;DHT22;6505;51.114;13.128;2022-09-24T13:08:45;21.20;50.00
12874;DHT22;6505;51.114;13.128;2022-09-24T13:11:30;21.20;50.00
12874;DHT22;6505;51.114;13.128;2022-09-24T13:14:16;21.20;51.00
12874;DHT22;6505;51.114;13.128;2022-09-24T13:16:50;21.20;50.90
12874;DHT22;6505;51.114;13.128;2022-09-24T13:19:28;21.20;51.10
12874;DHT22;6505;51.114;13.128;2022-09-24T13:22:04;21.20;51.30
12874;DHT22;6505;51.114;13.128;2022-09-24T13:24:44;21.20;50.70
12874;DHT22;6505;51.114;13.128;2022-09-24T13:27:22;21.20;49.90
12874;DHT22;6505;51.114;13.128;2022-09-24T13:30:12;21.20;49.50
12874;DHT22;6505;51.114;13.128;2022-09-24T13:32:50;21.20;50.00
12874;DHT22;6505;51.114;13.128;2022-09-24T13:35:32;21.20;48.90
12874;DHT22;6505;51.114;13.128;2022-09-24T13:38:16;21.20;48.90
12874;DHT22;6505;51.114;13.128;2022-09-24T13:40:52;21.20;50.40
12874;DHT22;6505;51.114;13.128;2022-09-24T13:43:34;21.20;49.70
12874;DHT22;6505;51.114;13.128;2022-09-24T13:46:10;21.20;49.70
12874;DHT22;6505;51.114;13.128;2022-09-24T13:48:47;21.10;50.10
12874;DHT22;6505;51.114;13.128;2022-09-24T13:51:22;21.20;50.70
12874;DHT22;6505;51.114;13.128;2022-09-24T13:53:59;21.20;50.90
12874;DHT22;6505;51.114;13.128;2022-09-24T13:56:32;21.20;51.10
12874;DHT22;6505;51.114;13.128;2022-09-24T13:59:04;21.20;50.60
12874;DHT22;6505;51.114;13.128;2022-09-24T14:01:39;21.10;50.60
12874;DHT22;6505;51.114;13.128;2022-09-24T14:04:15;21.20;50.50
12874;DHT22;6505;51.114;13.128;2022-09-24T14:06:48;21.10;50.50
12874;DHT22;6505;51.114;13.128;2022-09-24T14:09:28;21.10;50.40
12874;DHT22;6505;51.114;13.128;2022-09-24T14:12:00;21.10;50.10
12874;DHT22;6505;51.114;13.128;2022-09-24T14:14:33;21.10;50.20
12874;DHT22;6505;51.114;13.128;2022-09-24T14:17:05;21.10;49.80
12874;DHT22;6505;51.114;13.128;2022-09-24T14:19:34;21.10;49.40
12874;DHT22;6505;51.114;13.128;2022-09-24T14:22:04;21.10;49.50
12874;DHT22;6505;51.114;13.128;2022-09-24T14:24:41;21.10;48.90
12874;DHT22;6505;51.114;13.128;2022-09-24T14:27:15;21.10;48.90
12874;DHT22;6505;51.114;13.128;2022-09-24T14:29:50;21.10;49.10
12874;DHT22;6505;51.114;13.128;2022-09-24T14:32:27;21.10;49.20
12874;DHT22;6505;51.114;13.128;2022-09-24T14:34:58;21.10;48.80
12874;DHT22;6505;51.114;13.128;2022-09-24T14:37:30;21.10;48.70
12874;DHT22;6505;51.114;13.128;2022-09-24T14:40:04;21.10;48.70
12874;DHT22;6505;51.114;13.128;2022-09-24T14:42:39;21.20;48.50
12874;DHT22;6505;51.114;13.128;2022-09-24T14:45:18;21.10;48.30
12874;DHT22;6505;51.114;13.128;2022-09-24T14:47:58;21.10;48.10
12874;DHT22;6505;51.114;13.128;2022-09-24T14:50:31;21.10;49.60
12874;DHT22;6505;51.114;13.128;2022-09-24T14:53:11;21.10;49.00
12874;DHT22;6505;51.114;13.128;2022-09-24T14:55:42;21.10;49.50
12874;DHT22;6505;51.114;13.128;2022-09-24T14:58:23;21.10;48.80
12874;DHT22;6505;51.114;13.128;2022-09-24T15:00:53;21.10;48.50
12874;DHT22;6505;51.114;13.128;2022-09-24T15:03:27;21.10;48.70
12874;DHT22;6505;51.114;13.128;2022-09-24T15:06:14;21.10;48.90
12874;DHT22;6505;51.114;13.128;2022-09-24T15:08:52;21.20;48.60
12874;DHT22;6505;51.114;13.128;2022-09-24T15:11:27;21.20;48.40
12874;DHT22;6505;51.114;13.128;2022-09-24T15:13:58;21.10;49.20
12874;DHT22;6505;51.114;13.128;2022-09-24T15:16:30;21.10;49.20
12874;DHT22;6505;51.114;13.128;2022-09-24T15:19:15;21.10;49.80
12874;DHT22;6505;51.114;13.128;2022-09-24T15:21:46;21.10;50.20
12874;DHT22;6505;51.114;13.128;2022-09-24T15:24:15;21.20;50.60
12874;DHT22;6505;51.114;13.128;2022-09-24T15:26:46;21.20;49.90
12874;DHT22;6505;51.114;13.128;2022-09-24T15:29:18;21.10;49.50
12874;DHT22;6505;51.114;13.128;2022-09-24T15:31:50;21.20;49.10
12874;DHT22;6505;51.114;13.128;2022-09-24T15:34:18;21.20;48.90
12874;DHT22;6505;51.114;13.128;2022-09-24T15:36:47;21.20;50.10
12874;DHT22;6505;51.114;13.128;2022-09-24T15:39:19;21.20;50.20
12874;DHT22;6505;51.114;13.128;2022-09-24T15:41:50;21.20;50.70
12874;DHT22;6505;51.114;13.128;2022-09-24T15:44:22;21.20;51.10
12874;DHT22;6505;51.114;13.128;2022-09-24T15:46:58;21.20;51.70
12874;DHT22;6505;51.114;13.128;2022-09-24T15:49:26;21.20;51.80
12874;DHT22;6505;51.114;13.128;2022-09-24T15:51:58;21.20;51.20
12874;DHT22;6505;51.114;13.128;2022-09-24T15:54:29;21.20;50.00
12874;DHT22;6505;51.114;13.128;2022-09-24T15:56:58;21.20;49.70
12874;DHT22;6505;51.114;13.128;2022-09-24T15:59:27;21.20;49.70
12874;DHT22;6505;51.114;13.128;2022-09-24T16:01:58;21.20;49.70
12874;DHT22;6505;51.114;13.128;2022-09-24T16:04:28;21.20;49.70
12874;DHT22;6505;51.114;13.128;2022-09-24T16:06:56;21.20;49.70
12874;DHT22;6505;51.114;13.128;2022-09-24T16:09:24;21.20;49.90
12874;DHT22;6505;51.114;13.128;2022-09-24T16:11:52;21.20;50.20
12874;DHT22;6505;51.114;13.128;2022-09-24T16:14:24;21.20;50.10